createdAt,value
2022-08-28T00:02:26.649Z,18.91
2022-08-28T00:04:55.967Z,18.80
2022-08-28T00:07:32.149Z,18.66
2022-08-28T00:10:02.606Z,18.72
2022-08-28T00:12:38.611Z,18.52
2022-08-28T00:15:11.906Z,18.42
2022-08-28T00:17:50.753Z,18.49
2022-08-28T00:20:24.260Z,18.60
2022-08-28T00:23:08.505Z,18.44
2022-08-28T00:25:36.598Z,18.51
2022-08-28T00:28:23.628Z,18.33
2022-08-28T00:30:55.598Z,18.39
2022-08-28T00:33:30.641Z,18.56
2022-08-28T00:35:59.561Z,18.42
2022-08-28T00:38:28.841Z,18.31
2022-08-28T00:40:59.903Z,18.30
2022-08-28T00:44:06.660Z,18.30
2022-08-28T00:46:34.951Z,18.35
2022-08-28T00:49:07.585Z,18.19
2022-08-28T00:52:12.378Z,18.48
2022-08-28T00:54:59.258Z,18.53
2022-08-28T00:57:49.545Z,18.24
2022-08-28T01:00:36.334Z,18.22
2022-08-28T01:03:06.071Z,18.19
2022-08-28T01:06:24.457Z,18.17
2022-08-28T01:08:54.073Z,17.82
2022-08-28T01:11:32.993Z,17.87
2022-08-28T01:14:07.628Z,17.79
2022-08-28T01:16:44.273Z,17.66
2022-08-28T01:19:20.733Z,17.76
2022-08-28T01:22:08.392Z,18.11
2022-08-28T01:24:38.233Z,18.04
2022-08-28T01:27:08.411Z,18.09
2022-08-28T01:29:36.722Z,18.05
2022-08-28T01:32:05.473Z,17.97
2022-08-28T01:34:48.620Z,17.78
2022-08-28T01:37:15.823Z,17.73
2022-08-28T01:39:43.084Z,17.67
2022-08-28T01:42:17.681Z,17.50
2022-08-28T01:44:54.702Z,17.51
2022-08-28T01:47:27.457Z,17.72
2022-08-28T01:49:54.581Z,17.60
2022-08-28T01:52:26.452Z,17.80
2022-08-28T01:54:57.513Z,17.91
2022-08-28T01:57:26.240Z,17.92
2022-08-28T01:59:55.425Z,17.72
2022-08-28T02:02:23.610Z,17.66
2022-08-28T02:04:55.568Z,17.62
2022-08-28T02:07:24.692Z,17.78
2022-08-28T02:10:03.063Z,17.77
2022-08-28T02:12:39.313Z,17.71
2022-08-28T02:15:07.741Z,17.74
2022-08-28T02:17:34.967Z,17.83
2022-08-28T02:20:02.325Z,17.85
2022-08-28T02:22:38.774Z,17.99
2022-08-28T02:25:10.597Z,18.16
2022-08-28T02:27:40.403Z,17.97
2022-08-28T02:30:09.865Z,18.01
2022-08-28T02:32:40.922Z,17.94
2022-08-28T02:35:11.965Z,18.22
2022-08-28T02:37:45.430Z,18.29
2022-08-28T02:40:17.251Z,18.25
2022-08-28T02:42:52.870Z,18.18
2022-08-28T02:45:30.622Z,18.22
2022-08-28T02:48:05.412Z,18.18
2022-08-28T02:51:00.785Z,18.03
2022-08-28T02:53:30.829Z,17.94
2022-08-28T02:56:08.554Z,17.85
2022-08-28T02:58:40.167Z,17.86
2022-08-28T03:01:12.193Z,17.94
2022-08-28T03:03:51.355Z,18.01
2022-08-28T03:06:24.304Z,18.07
2022-08-28T03:08:51.270Z,17.94
2022-08-28T03:11:20.262Z,17.75
2022-08-28T03:13:51.420Z,17.73
2022-08-28T03:16:36.764Z,17.63
2022-08-28T03:19:06.007Z,17.63
2022-08-28T03:21:33.088Z,17.66
2022-08-28T03:24:00.050Z,17.70
2022-08-28T03:26:27.481Z,17.74
2022-08-28T03:28:57.373Z,17.91
2022-08-28T03:31:29.259Z,18.10
2022-08-28T03:33:58.702Z,18.24
2022-08-28T03:36:27.998Z,18.20
2022-08-28T03:39:00.070Z,18.11
2022-08-28T03:41:30.368Z,18.11
2022-08-28T03:43:59.574Z,18.17
2022-08-28T03:46:33.195Z,18.23
2022-08-28T03:49:11.413Z,18.21
2022-08-28T03:51:42.195Z,18.22
2022-08-28T03:54:10.342Z,18.22
2022-08-28T03:56:42.502Z,18.18
2022-08-28T03:59:09.593Z,18.16
2022-08-28T04:01:38.650Z,18.05
2022-08-28T04:04:15.342Z,17.98
2022-08-28T04:06:43.583Z,18.03
2022-08-28T04:09:10.609Z,18.11
2022-08-28T04:11:54.840Z,18.13
2022-08-28T04:14:25.882Z,18.34
2022-08-28T04:16:58.608Z,18.14
2022-08-28T04:19:30.522Z,18.13
2022-08-28T04:21:57.552Z,18.00
2022-08-28T04:24:32.045Z,18.07
2022-08-28T04:26:59.163Z,18.36
2022-08-28T04:29:26.636Z,18.31
2022-08-28T04:32:07.397Z,18.30
2022-08-28T04:34:41.278Z,18.53
2022-08-28T04:37:13.376Z,18.62
2022-08-28T04:39:40.539Z,18.46
2022-08-28T04:42:07.727Z,18.46
2022-08-28T04:44:36.046Z,18.48
2022-08-28T04:47:03.125Z,18.49
2022-08-28T04:49:44.451Z,18.77
2022-08-28T04:52:12.464Z,18.83
2022-08-28T04:54:43.526Z,18.85
2022-08-28T04:57:10.585Z,18.78
2022-08-28T04:59:40.912Z,18.97
2022-08-28T05:02:10.162Z,18.96
2022-08-28T05:04:37.306Z,19.08
2022-08-28T05:07:05.767Z,19.16
2022-08-28T05:09:35.330Z,19.16
2022-08-28T05:12:06.044Z,19.21
2022-08-28T05:14:40.353Z,19.33
2022-08-28T05:17:09.634Z,19.32
2022-08-28T05:19:38.915Z,19.40
2022-08-28T05:22:06.161Z,19.47
2022-08-28T05:24:35.048Z,19.48
2022-08-28T05:27:04.966Z,19.57
2022-08-28T05:29:32.775Z,19.74
2022-08-28T05:32:00.814Z,19.80
2022-08-28T05:34:28.374Z,19.89
2022-08-28T05:37:20.911Z,20.05
2022-08-28T05:39:47.845Z,19.97
2022-08-28T05:42:20.056Z,20.16
2022-08-28T05:44:55.285Z,20.25
2022-08-28T05:47:25.563Z,20.18
2022-08-28T05:49:56.726Z,20.28
2022-08-28T05:52:25.790Z,20.31
2022-08-28T05:54:52.860Z,20.31
2022-08-28T05:57:26.019Z,20.13
2022-08-28T05:59:54.133Z,20.07
2022-08-28T06:02:21.382Z,20.26
2022-08-28T06:04:49.338Z,20.52
2022-08-28T06:07:16.558Z,20.60
2022-08-28T06:09:44.036Z,20.67
2022-08-28T06:12:11.384Z,20.75
2022-08-28T06:14:39.295Z,20.77
2022-08-28T06:17:06.336Z,20.93
2022-08-28T06:19:41.079Z,21.07
2022-08-28T06:22:12.457Z,21.19
2022-08-28T06:24:40.459Z,21.27
2022-08-28T06:27:07.568Z,21.15
2022-08-28T06:29:35.798Z,20.87
2022-08-28T06:32:05.309Z,20.76
2022-08-28T06:34:34.427Z,20.81
2022-08-28T06:37:02.666Z,20.87
2022-08-28T06:39:29.660Z,20.90
2022-08-28T06:41:57.684Z,20.91
2022-08-28T06:44:32.553Z,21.11
2022-08-28T06:47:09.155Z,21.21
2022-08-28T06:49:46.492Z,21.41
2022-08-28T06:52:21.022Z,21.63
2022-08-28T06:55:13.544Z,21.48
2022-08-28T06:57:44.663Z,21.35
2022-08-28T07:00:14.390Z,21.59
2022-08-28T07:02:48.484Z,21.66
2022-08-28T07:05:15.675Z,21.77
2022-08-28T07:07:42.685Z,21.97
2022-08-28T07:10:11.109Z,22.11
2022-08-28T07:12:38.278Z,22.24
2022-08-28T07:15:05.916Z,22.18
2022-08-28T07:17:35.192Z,22.50
2022-08-28T07:20:05.575Z,22.65
2022-08-28T07:22:35.002Z,22.84
2022-08-28T07:25:05.018Z,22.92
2022-08-28T07:27:34.473Z,23.11
2022-08-28T07:30:06.314Z,23.25
2022-08-28T07:32:40.425Z,23.24
2022-08-28T07:35:07.863Z,23.37
2022-08-28T07:37:36.053Z,23.45
2022-08-28T07:40:10.337Z,23.47
2022-08-28T07:43:03.730Z,23.61
2022-08-28T07:45:38.763Z,23.83
2022-08-28T07:48:11.770Z,23.97
2022-08-28T07:50:55.769Z,24.15
2022-08-28T07:53:22.999Z,24.36
2022-08-28T07:55:53.035Z,24.47
2022-08-28T07:58:21.819Z,24.57
2022-08-28T08:00:49.040Z,24.34
2022-08-28T08:03:23.179Z,24.32
2022-08-28T08:05:58.078Z,24.22
2022-08-28T08:08:38.461Z,24.44
2022-08-28T08:11:18.293Z,24.62
2022-08-28T08:13:48.285Z,24.63
2022-08-28T08:16:23.364Z,24.15
2022-08-28T08:19:01.298Z,24.01
2022-08-28T08:21:30.432Z,24.13
2022-08-28T08:24:05.471Z,24.50
2022-08-28T08:26:34.117Z,24.62
2022-08-28T08:29:03.289Z,24.86
2022-08-28T08:31:33.126Z,24.85
2022-08-28T08:34:04.155Z,24.59
2022-08-28T08:36:35.572Z,24.42
2022-08-28T08:39:06.581Z,24.34
2022-08-28T08:41:48.533Z,24.81
2022-08-28T08:44:49.439Z,25.33
2022-08-28T08:47:44.467Z,25.87
2022-08-28T08:50:21.007Z,26.11
2022-08-28T08:53:24.702Z,25.66
2022-08-28T08:55:53.877Z,25.73
2022-08-28T08:58:46.575Z,25.70
2022-08-28T09:01:27.530Z,25.70
2022-08-28T09:04:13.306Z,25.56
2022-08-28T09:06:50.363Z,25.63
2022-08-28T09:09:47.721Z,26.15
2022-08-28T09:12:31.251Z,26.53
2022-08-28T09:15:13.276Z,26.84
2022-08-28T09:17:48.174Z,26.92
2022-08-28T09:20:32.784Z,26.55
2022-08-28T09:23:12.593Z,26.56
2022-08-28T09:26:03.203Z,26.58
2022-08-28T09:28:58.662Z,26.71
2022-08-28T09:31:41.515Z,26.67
2022-08-28T09:34:27.690Z,26.67
2022-08-28T09:36:56.518Z,26.60
2022-08-28T09:39:33.622Z,26.62
2022-08-28T09:42:42.168Z,26.36
2022-08-28T09:45:18.951Z,26.35
2022-08-28T09:47:50.333Z,26.22
2022-08-28T09:50:58.051Z,26.32
2022-08-28T09:53:36.125Z,26.42
2022-08-28T09:56:25.370Z,26.58
2022-08-28T09:59:01.666Z,26.42
2022-08-28T10:01:53.002Z,26.54
2022-08-28T10:05:01.920Z,26.52
2022-08-28T10:07:52.972Z,26.46
2022-08-28T10:10:48.273Z,26.55
2022-08-28T10:13:54.803Z,26.81
2022-08-28T10:16:47.388Z,26.97
2022-08-28T10:19:45.267Z,27.04
2022-08-28T10:22:51.864Z,26.79
2022-08-28T10:25:33.388Z,26.65
2022-08-28T10:28:31.624Z,26.51
2022-08-28T10:31:27.818Z,26.29
2022-08-28T10:34:23.459Z,26.21
2022-08-28T10:37:08.582Z,25.82
2022-08-28T10:39:57.794Z,25.80
2022-08-28T10:42:35.847Z,25.78
2022-08-28T10:45:17.411Z,25.94
2022-08-28T10:48:17.680Z,25.83
2022-08-28T10:50:55.001Z,26.00
2022-08-28T10:53:46.877Z,25.76
2022-08-28T10:56:17.990Z,25.75
2022-08-28T10:58:49.609Z,25.97
2022-08-28T11:01:38.825Z,26.21
2022-08-28T11:04:23.531Z,26.26
2022-08-28T11:06:57.694Z,26.08
2022-08-28T11:09:47.664Z,26.02
2022-08-28T11:12:19.952Z,25.78
2022-08-28T11:14:51.479Z,26.17
2022-08-28T11:17:41.422Z,26.24
2022-08-28T11:20:14.911Z,26.02
2022-08-28T11:22:50.143Z,25.98
2022-08-28T11:25:32.850Z,26.09
2022-08-28T11:28:15.490Z,26.00
2022-08-28T11:30:46.250Z,25.99
2022-08-28T11:33:46.944Z,25.85
2022-08-28T11:36:14.155Z,25.66
2022-08-28T11:38:58.059Z,25.59
2022-08-28T11:42:24.763Z,25.47
2022-08-28T11:44:52.313Z,25.57
2022-08-28T11:47:43.932Z,25.95
2022-08-28T11:50:32.043Z,26.38
2022-08-28T11:53:25.285Z,26.73
2022-08-28T11:56:32.129Z,27.24
2022-08-28T11:59:19.050Z,27.79
2022-08-28T12:02:29.768Z,28.25
2022-08-28T12:04:57.380Z,28.89
2022-08-28T12:07:35.216Z,29.03
2022-08-28T12:10:24.813Z,29.12
2022-08-28T12:12:56.686Z,29.12
2022-08-28T12:15:31.559Z,29.06
2022-08-28T12:18:02.972Z,29.12
2022-08-28T12:20:53.946Z,28.89
2022-08-28T12:23:23.930Z,28.29
2022-08-28T12:26:05.018Z,28.03
2022-08-28T12:28:39.484Z,27.51
2022-08-28T12:31:50.517Z,26.88
2022-08-28T12:34:34.267Z,26.40
2022-08-28T12:37:04.527Z,26.14
2022-08-28T12:39:33.555Z,26.06
2022-08-28T12:42:04.172Z,25.89
2022-08-28T12:44:39.959Z,25.66
2022-08-28T12:47:11.500Z,25.33
2022-08-28T12:49:44.753Z,24.98
2022-08-28T12:52:37.455Z,24.75
2022-08-28T12:55:06.559Z,24.36
2022-08-28T12:57:34.552Z,23.73
2022-08-28T13:00:10.606Z,23.35
2022-08-28T13:02:55.639Z,23.27
2022-08-28T13:05:36.605Z,22.73
2022-08-28T13:08:09.833Z,22.27
2022-08-28T13:10:49.561Z,22.22
2022-08-28T13:13:46.826Z,22.22
2022-08-28T13:16:43.755Z,22.38
2022-08-28T13:19:35.607Z,22.63
2022-08-28T13:22:09.051Z,22.43
2022-08-28T13:24:40.259Z,22.35
2022-08-28T13:27:12.418Z,22.33
2022-08-28T13:30:22.605Z,22.33
2022-08-28T13:33:02.619Z,22.14
2022-08-28T13:35:38.409Z,22.06
2022-08-28T13:38:12.871Z,21.98
2022-08-28T13:41:04.158Z,21.92
2022-08-28T13:43:45.357Z,21.94
2022-08-28T13:46:15.588Z,21.89
2022-08-28T13:48:45.859Z,21.72
2022-08-28T13:51:20.845Z,21.87
2022-08-28T13:53:50.701Z,21.95
2022-08-28T13:56:21.958Z,22.20
2022-08-28T13:59:05.793Z,22.58
2022-08-28T14:01:53.758Z,22.75
2022-08-28T14:04:20.976Z,23.11
2022-08-28T14:06:50.544Z,23.58
2022-08-28T14:09:17.968Z,23.97
2022-08-28T14:11:47.709Z,24.42
2022-08-28T14:14:16.720Z,24.78
2022-08-28T14:16:45.888Z,25.04
2022-08-28T14:19:14.203Z,25.33
2022-08-28T14:21:43.410Z,25.51
2022-08-28T14:24:10.600Z,25.78
2022-08-28T14:26:38.884Z,25.78
2022-08-28T14:29:08.431Z,25.49
2022-08-28T14:31:44.243Z,25.14
2022-08-28T14:34:17.212Z,24.99
2022-08-28T14:36:44.618Z,25.12
2022-08-28T14:39:13.406Z,25.13
2022-08-28T14:41:46.529Z,24.88
2022-08-28T14:44:13.880Z,24.75
2022-08-28T14:46:46.412Z,24.63
2022-08-28T14:49:18.230Z,24.66
2022-08-28T14:51:49.577Z,24.58
2022-08-28T14:54:26.697Z,24.66
2022-08-28T14:56:56.179Z,24.34
2022-08-28T14:59:26.447Z,23.92
2022-08-28T15:01:55.989Z,24.21
2022-08-28T15:04:35.119Z,24.18
2022-08-28T15:07:06.687Z,24.10
2022-08-28T15:09:39.664Z,23.97
2022-08-28T15:12:07.775Z,23.79
2022-08-28T15:14:36.430Z,23.45
2022-08-28T15:17:04.406Z,23.43
2022-08-28T15:19:31.545Z,23.34
2022-08-28T15:21:59.820Z,22.97
2022-08-28T15:24:31.194Z,22.64
2022-08-28T15:26:59.928Z,22.53
2022-08-28T15:29:30.281Z,22.18
2022-08-28T15:32:01.037Z,21.87
2022-08-28T15:34:31.095Z,21.71
2022-08-28T15:37:00.590Z,21.57
2022-08-28T15:39:48.078Z,21.48
2022-08-28T15:42:16.374Z,21.41
2022-08-28T15:44:43.630Z,21.21
2022-08-28T15:47:12.789Z,21.07
2022-08-28T15:49:48.877Z,21.20
2022-08-28T15:52:25.438Z,21.10
2022-08-28T15:54:54.102Z,21.04
2022-08-28T15:57:23.332Z,21.07
2022-08-28T15:59:57.681Z,21.11
2022-08-28T16:02:26.319Z,21.21
2022-08-28T16:04:56.385Z,21.24
2022-08-28T16:07:25.069Z,21.23
2022-08-28T16:09:58.134Z,21.00
2022-08-28T16:13:01.167Z,21.01
2022-08-28T16:15:28.225Z,20.97
2022-08-28T16:17:56.317Z,20.90
2022-08-28T16:20:26.616Z,20.91
2022-08-28T16:22:55.908Z,20.95
2022-08-28T16:25:24.152Z,20.94
2022-08-28T16:27:51.556Z,20.83
2022-08-28T16:30:19.143Z,20.83
2022-08-28T16:32:48.390Z,20.77
2022-08-28T16:35:18.794Z,20.65
2022-08-28T16:37:46.015Z,20.64
2022-08-28T16:40:17.383Z,20.63
2022-08-28T16:42:51.494Z,20.56
2022-08-28T16:45:19.337Z,20.35
2022-08-28T16:47:50.703Z,20.37
2022-08-28T16:50:41.915Z,20.35
2022-08-28T16:53:13.151Z,20.33
2022-08-28T16:55:41.708Z,20.28
2022-08-28T16:58:33.217Z,20.23
2022-08-28T17:01:02.429Z,20.23
2022-08-28T17:03:30.135Z,20.14
2022-08-28T17:06:03.818Z,20.05
2022-08-28T17:08:37.111Z,19.98
2022-08-28T17:11:06.940Z,19.89
2022-08-28T17:13:36.097Z,19.81
2022-08-28T17:16:05.485Z,19.76
2022-08-28T17:18:33.777Z,19.70
2022-08-28T17:21:21.763Z,19.66
2022-08-28T17:23:50.021Z,19.71
2022-08-28T17:26:18.274Z,19.70
2022-08-28T17:28:53.337Z,19.68
2022-08-28T17:31:23.472Z,19.61
2022-08-28T17:33:50.697Z,19.47
2022-08-28T17:36:32.769Z,19.39
2022-08-28T17:39:03.596Z,19.42
2022-08-28T17:41:32.039Z,19.46
2022-08-28T17:44:00.952Z,19.38
2022-08-28T17:46:33.982Z,19.36
2022-08-28T17:49:07.939Z,19.31
2022-08-28T17:51:43.361Z,19.34
2022-08-28T17:54:22.032Z,19.34
2022-08-28T17:56:56.005Z,19.29
2022-08-28T17:59:34.210Z,19.21
2022-08-28T18:02:03.156Z,19.05
2022-08-28T18:04:31.637Z,19.15
2022-08-28T18:07:03.476Z,18.97
2022-08-28T18:09:30.832Z,18.83
2022-08-28T18:12:12.493Z,18.68
2022-08-28T18:14:51.222Z,18.72
2022-08-28T18:17:19.842Z,18.60
2022-08-28T18:19:48.433Z,18.60
2022-08-28T18:22:16.935Z,18.54
2022-08-28T18:24:53.211Z,18.73
2022-08-28T18:27:21.632Z,18.75
2022-08-28T18:29:50.094Z,18.74
2022-08-28T18:32:22.094Z,18.59
2022-08-28T18:34:50.907Z,18.57
2022-08-28T18:37:20.330Z,18.64
2022-08-28T18:39:47.718Z,18.73
2022-08-28T18:42:31.232Z,18.74
2022-08-28T18:44:59.075Z,18.60
2022-08-28T18:47:27.276Z,18.67
2022-08-28T18:49:54.977Z,18.75
2022-08-28T18:52:22.760Z,18.58
2022-08-28T18:54:53.587Z,18.66
2022-08-28T18:57:32.441Z,18.64
2022-08-28T19:00:00.683Z,18.50
2022-08-28T19:02:28.576Z,18.59
2022-08-28T19:04:55.878Z,18.50
2022-08-28T19:07:24.263Z,18.58
2022-08-28T19:09:57.195Z,18.46
2022-08-28T19:12:26.633Z,18.42
2022-08-28T19:14:55.701Z,18.45
2022-08-28T19:17:23.266Z,18.40
2022-08-28T19:20:12.070Z,18.44
2022-08-28T19:22:44.938Z,18.43
2022-08-28T19:25:28.590Z,18.56
2022-08-28T19:28:02.179Z,18.55
2022-08-28T19:30:34.410Z,18.44
2022-08-28T19:33:04.641Z,18.48
2022-08-28T19:35:32.699Z,18.53
2022-08-28T19:38:01.714Z,18.58
2022-08-28T19:40:30.329Z,18.50
2022-08-28T19:43:00.752Z,18.59
2022-08-28T19:45:29.051Z,18.53
2022-08-28T19:47:56.792Z,18.61
2022-08-28T19:50:24.358Z,18.67
2022-08-28T19:52:52.204Z,18.63
2022-08-28T19:55:25.974Z,18.70
2022-08-28T19:57:53.351Z,18.72
2022-08-28T20:00:23.832Z,18.76
2022-08-28T20:02:53.232Z,18.69
2022-08-28T20:05:22.268Z,18.76
2022-08-28T20:07:50.114Z,18.80
2022-08-28T20:10:19.170Z,18.84
2022-08-28T20:12:49.612Z,18.89
2022-08-28T20:15:19.604Z,18.95
2022-08-28T20:17:49.776Z,18.90
2022-08-28T20:20:25.574Z,18.94
2022-08-28T20:22:56.030Z,19.01
2022-08-28T20:25:24.086Z,19.00
2022-08-28T20:27:53.369Z,18.99
2022-08-28T20:30:20.737Z,18.98
2022-08-28T20:32:53.738Z,18.95
2022-08-28T20:35:22.130Z,18.95
2022-08-28T20:37:53.777Z,19.03
2022-08-28T20:40:22.094Z,19.00
2022-08-28T20:42:55.254Z,19.06
2022-08-28T20:45:24.495Z,19.09
2022-08-28T20:47:51.593Z,19.00
2022-08-28T20:50:19.757Z,19.02
2022-08-28T20:52:47.937Z,19.08
2022-08-28T20:55:22.006Z,19.13
2022-08-28T20:58:07.472Z,19.13
2022-08-28T21:00:35.591Z,19.12
2022-08-28T21:03:06.096Z,19.03
2022-08-28T21:05:37.385Z,19.08
2022-08-28T21:08:08.051Z,19.09
2022-08-28T21:10:43.777Z,19.11
2022-08-28T21:13:12.091Z,19.11
2022-08-28T21:15:56.810Z,19.12
2022-08-28T21:18:27.173Z,19.07
2022-08-28T21:21:07.375Z,18.98
2022-08-28T21:23:36.670Z,18.83
2022-08-28T21:26:11.569Z,18.97
2022-08-28T21:28:58.424Z,18.99
2022-08-28T21:31:25.677Z,19.10
2022-08-28T21:34:02.090Z,19.11
2022-08-28T21:36:49.555Z,19.02
2022-08-28T21:39:23.532Z,19.03
2022-08-28T21:41:51.798Z,19.07
2022-08-28T21:44:19.986Z,19.11
2022-08-28T21:46:48.146Z,19.13
2022-08-28T21:49:22.919Z,19.05
2022-08-28T21:52:01.463Z,19.13
2022-08-28T21:54:31.561Z,19.13
2022-08-28T21:56:59.840Z,19.10
2022-08-28T21:59:37.544Z,19.20
2022-08-28T22:02:18.177Z,19.12
2022-08-28T22:04:52.470Z,19.12
2022-08-28T22:07:44.544Z,19.11
2022-08-28T22:10:15.712Z,19.08
2022-08-28T22:12:56.794Z,19.13
2022-08-28T22:15:24.992Z,19.13
2022-08-28T22:17:53.219Z,19.14
2022-08-28T22:20:20.440Z,19.14
2022-08-28T22:23:05.817Z,19.14
2022-08-28T22:25:32.983Z,18.99
2022-08-28T22:28:11.200Z,19.04
2022-08-28T22:30:44.199Z,19.07
2022-08-28T22:33:14.284Z,19.01
2022-08-28T22:36:01.569Z,19.01
2022-08-28T22:38:34.081Z,19.02
2022-08-28T22:41:05.752Z,19.06
2022-08-28T22:43:34.772Z,19.02
2022-08-28T22:46:04.389Z,19.01
2022-08-28T22:48:33.695Z,18.98
2022-08-28T22:51:26.558Z,18.95
2022-08-28T22:53:57.740Z,18.93
2022-08-28T22:56:25.087Z,18.96
2022-08-28T22:59:10.791Z,19.01
2022-08-28T23:01:38.684Z,19.00
2022-08-28T23:04:06.802Z,18.96
2022-08-28T23:06:34.145Z,18.84
2022-08-28T23:09:04.290Z,18.86
2022-08-28T23:11:35.601Z,18.85
2022-08-28T23:14:07.743Z,18.87
2022-08-28T23:16:35.374Z,18.81
2022-08-28T23:19:09.791Z,18.72
2022-08-28T23:21:44.172Z,18.68
2022-08-28T23:24:14.298Z,18.64
2022-08-28T23:26:44.982Z,18.63
2022-08-28T23:29:17.976Z,18.55
2022-08-28T23:31:50.370Z,18.56
2022-08-28T23:34:17.584Z,18.54
2022-08-28T23:36:44.705Z,18.37
2022-08-28T23:39:13.919Z,18.54
2022-08-28T23:41:48.209Z,18.49
2022-08-28T23:44:25.382Z,18.40
2022-08-28T23:46:54.589Z,18.41
2022-08-28T23:49:26.835Z,18.53
2022-08-28T23:51:56.105Z,18.48
2022-08-28T23:54:44.963Z,18.47
2022-08-28T23:57:18.680Z,18.50
2022-08-28T23:59:47.705Z,18.46
